sensor_id;sensor_type;location;lat;lon;timestamp;P1;durP1;ratioP1;P2;durP2;ratioP2
24137;SDS011;17947;50.672;6.076;2023-01-20T00:00:41;3.70;;;2.50;;
24137;SDS011;17947;50.672;6.076;2023-01-20T00:03:07;4.00;;;2.88;;
24137;SDS011;17947;50.672;6.076;2023-01-20T00:05:33;3.50;;;2.30;;
24137;SDS011;17947;50.672;6.076;2023-01-20T00:07:59;3.05;;;2.30;;
24137;SDS011;17947;50.672;6.076;2023-01-20T00:10:26;3.67;;;2.47;;
24137;SDS011;17947;50.672;6.076;2023-01-20T00:12:52;3.40;;;2.47;;
24137;SDS011;17947;50.672;6.076;2023-01-20T00:15:19;3.45;;;2.40;;
24137;SDS011;17947;50.672;6.076;2023-01-20T00:17:45;2.40;;;2.20;;
24137;SDS011;17947;50.672;6.076;2023-01-20T00:20:11;5.63;;;2.33;;
24137;SDS011;17947;50.672;6.076;2023-01-20T00:22:37;3.25;;;2.40;;
24137;SDS011;17947;50.672;6.076;2023-01-20T00:25:07;3.58;;;2.55;;
24137;SDS011;17947;50.672;6.076;2023-01-20T00:27:33;3.50;;;2.50;;
24137;SDS011;17947;50.672;6.076;2023-01-20T00:29:59;2.67;;;2.17;;
24137;SDS011;17947;50.672;6.076;2023-01-20T00:32:25;3.60;;;2.45;;
24137;SDS011;17947;50.672;6.076;2023-01-20T00:34:51;3.90;;;2.50;;
24137;SDS011;17947;50.672;6.076;2023-01-20T00:37:17;3.78;;;2.40;;
24137;SDS011;17947;50.672;6.076;2023-01-20T00:39:43;3.38;;;2.47;;
24137;SDS011;17947;50.672;6.076;2023-01-20T00:42:11;2.90;;;2.35;;
24137;SDS011;17947;50.672;6.076;2023-01-20T00:44:37;2.58;;;2.22;;
24137;SDS011;17947;50.672;6.076;2023-01-20T00:47:03;2.50;;;2.10;;
24137;SDS011;17947;50.672;6.076;2023-01-20T00:49:29;2.83;;;2.47;;
24137;SDS011;17947;50.672;6.076;2023-01-20T00:51:55;3.08;;;2.25;;
24137;SDS011;17947;50.672;6.076;2023-01-20T00:54:21;2.97;;;2.10;;
24137;SDS011;17947;50.672;6.076;2023-01-20T00:56:47;2.97;;;2.20;;
24137;SDS011;17947;50.672;6.076;2023-01-20T00:59:13;3.35;;;2.50;;
24137;SDS011;17947;50.672;6.076;2023-01-20T01:01:39;3.22;;;2.33;;
24137;SDS011;17947;50.672;6.076;2023-01-20T01:04:05;2.65;;;2.30;;
24137;SDS011;17947;50.672;6.076;2023-01-20T01:06:31;3.58;;;2.40;;
24137;SDS011;17947;50.672;6.076;2023-01-20T01:08:57;2.30;;;1.90;;
24137;SDS011;17947;50.672;6.076;2023-01-20T01:11:23;2.45;;;2.05;;
24137;SDS011;17947;50.672;6.076;2023-01-20T01:13:49;2.83;;;2.38;;
24137;SDS011;17947;50.672;6.076;2023-01-20T01:16:15;2.65;;;2.25;;
24137;SDS011;17947;50.672;6.076;2023-01-20T01:18:41;3.78;;;2.28;;
24137;SDS011;17947;50.672;6.076;2023-01-20T01:21:08;2.60;;;1.92;;
24137;SDS011;17947;50.672;6.076;2023-01-20T01:23:35;2.47;;;2.28;;
24137;SDS011;17947;50.672;6.076;2023-01-20T01:26:01;2.92;;;2.17;;
24137;SDS011;17947;50.672;6.076;2023-01-20T01:28:27;3.20;;;2.03;;
24137;SDS011;17947;50.672;6.076;2023-01-20T01:30:53;2.38;;;2.17;;
24137;SDS011;17947;50.672;6.076;2023-01-20T01:33:19;3.30;;;2.15;;
24137;SDS011;17947;50.672;6.076;2023-01-20T01:35:58;2.38;;;2.13;;
24137;SDS011;17947;50.672;6.076;2023-01-20T01:38:24;2.88;;;1.92;;
24137;SDS011;17947;50.672;6.076;2023-01-20T01:40:51;2.95;;;2.00;;
24137;SDS011;17947;50.672;6.076;2023-01-20T01:43:27;4.05;;;2.60;;
24137;SDS011;17947;50.672;6.076;2023-01-20T01:45:53;3.00;;;2.33;;
24137;SDS011;17947;50.672;6.076;2023-01-20T01:48:24;3.17;;;2.28;;
24137;SDS011;17947;50.672;6.076;2023-01-20T01:50:57;3.60;;;2.60;;
24137;SDS011;17947;50.672;6.076;2023-01-20T01:53:25;3.20;;;2.45;;
24137;SDS011;17947;50.672;6.076;2023-01-20T01:55:55;2.72;;;2.17;;
24137;SDS011;17947;50.672;6.076;2023-01-20T01:58:23;2.80;;;2.22;;
24137;SDS011;17947;50.672;6.076;2023-01-20T02:00:52;2.47;;;2.10;;
24137;SDS011;17947;50.672;6.076;2023-01-20T02:03:18;2.13;;;1.92;;
24137;SDS011;17947;50.672;6.076;2023-01-20T02:05:45;2.42;;;1.77;;
24137;SDS011;17947;50.672;6.076;2023-01-20T02:08:13;3.08;;;1.70;;
24137;SDS011;17947;50.672;6.076;2023-01-20T02:10:39;2.55;;;2.10;;
24137;SDS011;17947;50.672;6.076;2023-01-20T02:13:05;2.78;;;2.00;;
24137;SDS011;17947;50.672;6.076;2023-01-20T02:15:35;2.72;;;1.88;;
24137;SDS011;17947;50.672;6.076;2023-01-20T02:18:07;3.00;;;2.00;;
24137;SDS011;17947;50.672;6.076;2023-01-20T02:34:28;2.70;;;1.85;;
24137;SDS011;17947;50.672;6.076;2023-01-20T02:36:56;2.30;;;2.08;;
24137;SDS011;17947;50.672;6.076;2023-01-20T02:42:00;2.30;;;1.60;;
24137;SDS011;17947;50.672;6.076;2023-01-20T02:47:18;4.05;;;1.92;;
24137;SDS011;17947;50.672;6.076;2023-01-20T02:49:51;2.78;;;1.92;;
24137;SDS011;17947;50.672;6.076;2023-01-20T02:52:21;2.97;;;2.17;;
24137;SDS011;17947;50.672;6.076;2023-01-20T02:54:48;3.03;;;2.30;;
24137;SDS011;17947;50.672;6.076;2023-01-20T02:57:17;3.45;;;2.00;;
24137;SDS011;17947;50.672;6.076;2023-01-20T02:59:47;3.08;;;1.92;;
24137;SDS011;17947;50.672;6.076;2023-01-20T03:02:16;2.45;;;2.20;;
24137;SDS011;17947;50.672;6.076;2023-01-20T03:05:05;2.17;;;1.80;;
24137;SDS011;17947;50.672;6.076;2023-01-20T03:07:30;2.97;;;2.00;;
24137;SDS011;17947;50.672;6.076;2023-01-20T03:09:57;3.53;;;2.10;;
24137;SDS011;17947;50.672;6.076;2023-01-20T03:12:28;2.47;;;1.92;;
24137;SDS011;17947;50.672;6.076;2023-01-20T03:14:55;3.22;;;2.00;;
24137;SDS011;17947;50.672;6.076;2023-01-20T03:17:22;2.20;;;2.00;;
24137;SDS011;17947;50.672;6.076;2023-01-20T03:19:48;2.28;;;2.00;;
24137;SDS011;17947;50.672;6.076;2023-01-20T03:22:14;2.88;;;2.20;;
24137;SDS011;17947;50.672;6.076;2023-01-20T03:24:40;1.88;;;1.65;;
24137;SDS011;17947;50.672;6.076;2023-01-20T03:27:07;3.00;;;1.98;;
24137;SDS011;17947;50.672;6.076;2023-01-20T03:29:34;3.78;;;2.03;;
24137;SDS011;17947;50.672;6.076;2023-01-20T03:32:01;2.38;;;1.77;;
24137;SDS011;17947;50.672;6.076;2023-01-20T03:34:29;2.78;;;1.83;;
24137;SDS011;17947;50.672;6.076;2023-01-20T03:36:56;2.08;;;1.77;;
24137;SDS011;17947;50.672;6.076;2023-01-20T03:39:22;2.30;;;2.03;;
24137;SDS011;17947;50.672;6.076;2023-01-20T03:49:34;1.83;;;1.60;;
24137;SDS011;17947;50.672;6.076;2023-01-20T03:52:02;2.15;;;1.90;;
24137;SDS011;17947;50.672;6.076;2023-01-20T03:54:33;3.17;;;1.80;;
24137;SDS011;17947;50.672;6.076;2023-01-20T03:57:04;3.05;;;2.00;;
24137;SDS011;17947;50.672;6.076;2023-01-20T03:59:33;2.08;;;1.67;;
24137;SDS011;17947;50.672;6.076;2023-01-20T04:02:01;2.33;;;2.00;;
24137;SDS011;17947;50.672;6.076;2023-01-20T04:04:27;3.58;;;1.80;;
24137;SDS011;17947;50.672;6.076;2023-01-20T04:06:54;2.00;;;1.70;;
24137;SDS011;17947;50.672;6.076;2023-01-20T04:09:25;1.95;;;1.73;;
24137;SDS011;17947;50.672;6.076;2023-01-20T04:11:53;2.03;;;1.58;;
24137;SDS011;17947;50.672;6.076;2023-01-20T04:14:19;2.42;;;1.90;;
24137;SDS011;17947;50.672;6.076;2023-01-20T04:16:53;2.10;;;1.70;;
24137;SDS011;17947;50.672;6.076;2023-01-20T04:19:20;2.30;;;1.88;;
24137;SDS011;17947;50.672;6.076;2023-01-20T04:21:52;2.10;;;1.90;;
24137;SDS011;17947;50.672;6.076;2023-01-20T04:24:24;2.35;;;1.55;;
24137;SDS011;17947;50.672;6.076;2023-01-20T04:26:51;2.15;;;1.67;;
24137;SDS011;17947;50.672;6.076;2023-01-20T04:29:17;2.15;;;1.70;;
24137;SDS011;17947;50.672;6.076;2023-01-20T04:31:43;2.47;;;1.70;;
24137;SDS011;17947;50.672;6.076;2023-01-20T04:34:12;1.70;;;1.60;;
24137;SDS011;17947;50.672;6.076;2023-01-20T04:36:41;2.55;;;1.70;;
24137;SDS011;17947;50.672;6.076;2023-01-20T04:39:08;1.90;;;1.73;;
24137;SDS011;17947;50.672;6.076;2023-01-20T04:41:34;1.83;;;1.60;;
24137;SDS011;17947;50.672;6.076;2023-01-20T04:44:00;1.85;;;1.40;;
24137;SDS011;17947;50.672;6.076;2023-01-20T04:46:26;3.05;;;1.70;;
24137;SDS011;17947;50.672;6.076;2023-01-20T04:48:52;2.25;;;1.50;;
24137;SDS011;17947;50.672;6.076;2023-01-20T04:51:18;2.08;;;1.50;;
24137;SDS011;17947;50.672;6.076;2023-01-20T04:53:44;1.27;;;1.17;;
24137;SDS011;17947;50.672;6.076;2023-01-20T04:56:10;2.50;;;1.60;;
24137;SDS011;17947;50.672;6.076;2023-01-20T04:58:37;2.78;;;1.73;;
24137;SDS011;17947;50.672;6.076;2023-01-20T05:01:03;1.48;;;1.30;;
24137;SDS011;17947;50.672;6.076;2023-01-20T05:03:29;2.03;;;1.48;;
24137;SDS011;17947;50.672;6.076;2023-01-20T05:05:55;1.77;;;1.40;;
24137;SDS011;17947;50.672;6.076;2023-01-20T05:08:21;2.28;;;1.75;;
24137;SDS011;17947;50.672;6.076;2023-01-20T05:10:47;1.90;;;1.67;;
24137;SDS011;17947;50.672;6.076;2023-01-20T05:13:13;1.70;;;1.50;;
24137;SDS011;17947;50.672;6.076;2023-01-20T05:15:39;2.03;;;1.73;;
24137;SDS011;17947;50.672;6.076;2023-01-20T05:18:05;1.90;;;1.48;;
24137;SDS011;17947;50.672;6.076;2023-01-20T05:20:31;1.92;;;1.50;;
24137;SDS011;17947;50.672;6.076;2023-01-20T05:22:57;1.52;;;1.40;;
24137;SDS011;17947;50.672;6.076;2023-01-20T05:25:23;2.00;;;1.80;;
24137;SDS011;17947;50.672;6.076;2023-01-20T05:27:49;1.40;;;1.25;;
24137;SDS011;17947;50.672;6.076;2023-01-20T05:30:15;2.15;;;1.60;;
24137;SDS011;17947;50.672;6.076;2023-01-20T05:32:43;1.90;;;1.70;;
24137;SDS011;17947;50.672;6.076;2023-01-20T05:35:10;1.50;;;1.40;;
24137;SDS011;17947;50.672;6.076;2023-01-20T05:37:39;2.00;;;1.70;;
24137;SDS011;17947;50.672;6.076;2023-01-20T05:40:05;2.17;;;1.75;;
24137;SDS011;17947;50.672;6.076;2023-01-20T05:42:32;2.72;;;1.75;;
24137;SDS011;17947;50.672;6.076;2023-01-20T05:44:58;2.63;;;2.03;;
24137;SDS011;17947;50.672;6.076;2023-01-20T05:47:24;1.90;;;1.50;;
24137;SDS011;17947;50.672;6.076;2023-01-20T05:49:50;1.83;;;1.50;;
24137;SDS011;17947;50.672;6.076;2023-01-20T05:52:16;2.83;;;1.98;;
24137;SDS011;17947;50.672;6.076;2023-01-20T05:54:43;1.60;;;1.50;;
24137;SDS011;17947;50.672;6.076;2023-01-20T05:57:11;1.90;;;1.58;;
24137;SDS011;17947;50.672;6.076;2023-01-20T05:59:43;1.77;;;1.60;;
24137;SDS011;17947;50.672;6.076;2023-01-20T06:02:13;1.98;;;1.65;;
24137;SDS011;17947;50.672;6.076;2023-01-20T06:04:44;3.65;;;1.80;;
24137;SDS011;17947;50.672;6.076;2023-01-20T06:07:11;1.67;;;1.58;;
24137;SDS011;17947;50.672;6.076;2023-01-20T06:09:40;1.40;;;1.30;;
24137;SDS011;17947;50.672;6.076;2023-01-20T06:12:22;1.77;;;1.60;;
24137;SDS011;17947;50.672;6.076;2023-01-20T06:14:48;2.03;;;1.52;;
24137;SDS011;17947;50.672;6.076;2023-01-20T06:17:15;1.50;;;1.33;;
24137;SDS011;17947;50.672;6.076;2023-01-20T06:19:42;1.63;;;1.52;;
24137;SDS011;17947;50.672;6.076;2023-01-20T06:22:11;1.63;;;1.52;;
24137;SDS011;17947;50.672;6.076;2023-01-20T06:24:39;1.85;;;1.52;;
24137;SDS011;17947;50.672;6.076;2023-01-20T06:27:06;2.40;;;1.70;;
24137;SDS011;17947;50.672;6.076;2023-01-20T06:29:33;1.98;;;1.67;;
24137;SDS011;17947;50.672;6.076;2023-01-20T06:32:00;1.90;;;1.50;;
24137;SDS011;17947;50.672;6.076;2023-01-20T06:34:27;2.53;;;1.70;;
24137;SDS011;17947;50.672;6.076;2023-01-20T06:36:54;1.63;;;1.45;;
24137;SDS011;17947;50.672;6.076;2023-01-20T06:39:21;3.38;;;1.40;;
24137;SDS011;17947;50.672;6.076;2023-01-20T06:41:47;2.08;;;1.55;;
24137;SDS011;17947;50.672;6.076;2023-01-20T06:44:14;1.98;;;1.58;;
24137;SDS011;17947;50.672;6.076;2023-01-20T06:46:41;1.60;;;1.48;;
24137;SDS011;17947;50.672;6.076;2023-01-20T06:49:07;1.50;;;1.40;;
24137;SDS011;17947;50.672;6.076;2023-01-20T06:51:33;1.80;;;1.50;;
24137;SDS011;17947;50.672;6.076;2023-01-20T06:53:59;1.55;;;1.42;;
24137;SDS011;17947;50.672;6.076;2023-01-20T06:56:25;1.88;;;1.52;;
24137;SDS011;17947;50.672;6.076;2023-01-20T06:58:51;2.38;;;1.50;;
24137;SDS011;17947;50.672;6.076;2023-01-20T07:01:21;1.73;;;1.55;;
24137;SDS011;17947;50.672;6.076;2023-01-20T07:03:47;2.08;;;1.52;;
24137;SDS011;17947;50.672;6.076;2023-01-20T07:06:19;2.78;;;1.67;;
24137;SDS011;17947;50.672;6.076;2023-01-20T07:08:47;2.00;;;1.40;;
24137;SDS011;17947;50.672;6.076;2023-01-20T07:11:13;1.65;;;1.30;;
24137;SDS011;17947;50.672;6.076;2023-01-20T07:13:39;1.60;;;1.50;;
24137;SDS011;17947;50.672;6.076;2023-01-20T07:16:05;2.13;;;1.88;;
24137;SDS011;17947;50.672;6.076;2023-01-20T07:18:31;1.80;;;1.52;;
24137;SDS011;17947;50.672;6.076;2023-01-20T07:20:57;1.75;;;1.63;;
24137;SDS011;17947;50.672;6.076;2023-01-20T07:23:24;2.78;;;1.75;;
24137;SDS011;17947;50.672;6.076;2023-01-20T07:25:57;1.65;;;1.55;;
24137;SDS011;17947;50.672;6.076;2023-01-20T07:28:23;2.35;;;1.52;;
24137;SDS011;17947;50.672;6.076;2023-01-20T07:30:49;1.65;;;1.50;;
24137;SDS011;17947;50.672;6.076;2023-01-20T07:33:16;1.67;;;1.42;;
24137;SDS011;17947;50.672;6.076;2023-01-20T07:35:42;1.83;;;1.60;;
24137;SDS011;17947;50.672;6.076;2023-01-20T07:38:09;1.38;;;1.27;;
24137;SDS011;17947;50.672;6.076;2023-01-20T07:40:35;1.45;;;1.35;;
24137;SDS011;17947;50.672;6.076;2023-01-20T07:43:02;2.55;;;1.50;;
24137;SDS011;17947;50.672;6.076;2023-01-20T07:45:28;1.30;;;1.20;;
24137;SDS011;17947;50.672;6.076;2023-01-20T07:47:55;1.73;;;1.27;;
24137;SDS011;17947;50.672;6.076;2023-01-20T07:50:21;1.90;;;1.55;;
24137;SDS011;17947;50.672;6.076;2023-01-20T07:52:47;1.65;;;1.30;;
24137;SDS011;17947;50.672;6.076;2023-01-20T07:55:14;1.80;;;1.65;;
24137;SDS011;17947;50.672;6.076;2023-01-20T07:57:40;1.88;;;1.40;;
24137;SDS011;17947;50.672;6.076;2023-01-20T08:00:06;1.67;;;1.35;;
24137;SDS011;17947;50.672;6.076;2023-01-20T08:02:39;1.80;;;1.50;;
24137;SDS011;17947;50.672;6.076;2023-01-20T08:05:05;1.90;;;1.40;;
24137;SDS011;17947;50.672;6.076;2023-01-20T08:07:40;1.83;;;1.35;;
24137;SDS011;17947;50.672;6.076;2023-01-20T08:10:06;1.88;;;1.63;;
24137;SDS011;17947;50.672;6.076;2023-01-20T08:12:33;1.80;;;1.45;;
24137;SDS011;17947;50.672;6.076;2023-01-20T08:14:59;3.45;;;1.63;;
24137;SDS011;17947;50.672;6.076;2023-01-20T08:17:25;12.52;;;5.07;;
24137;SDS011;17947;50.672;6.076;2023-01-20T08:19:51;9.88;;;3.65;;
24137;SDS011;17947;50.672;6.076;2023-01-20T08:22:17;7.95;;;2.85;;
24137;SDS011;17947;50.672;6.076;2023-01-20T08:24:43;5.25;;;2.53;;
24137;SDS011;17947;50.672;6.076;2023-01-20T08:27:09;6.88;;;2.35;;
24137;SDS011;17947;50.672;6.076;2023-01-20T08:29:35;6.03;;;2.60;;
24137;SDS011;17947;50.672;6.076;2023-01-20T08:32:01;5.88;;;2.25;;
24137;SDS011;17947;50.672;6.076;2023-01-20T08:34:27;5.22;;;2.47;;
24137;SDS011;17947;50.672;6.076;2023-01-20T08:36:53;8.68;;;2.67;;
24137;SDS011;17947;50.672;6.076;2023-01-20T08:39:21;5.57;;;2.50;;
24137;SDS011;17947;50.672;6.076;2023-01-20T08:41:48;6.03;;;2.22;;
24137;SDS011;17947;50.672;6.076;2023-01-20T08:44:14;5.28;;;2.20;;
24137;SDS011;17947;50.672;6.076;2023-01-20T08:46:41;4.65;;;2.30;;
24137;SDS011;17947;50.672;6.076;2023-01-20T08:49:08;5.05;;;2.30;;
24137;SDS011;17947;50.672;6.076;2023-01-20T08:51:35;5.75;;;2.10;;
24137;SDS011;17947;50.672;6.076;2023-01-20T08:54:01;4.15;;;1.92;;
24137;SDS011;17947;50.672;6.076;2023-01-20T08:56:28;4.38;;;1.95;;
24137;SDS011;17947;50.672;6.076;2023-01-20T08:59:02;3.97;;;2.10;;
24137;SDS011;17947;50.672;6.076;2023-01-20T09:01:29;3.13;;;2.08;;
24137;SDS011;17947;50.672;6.076;2023-01-20T09:03:57;3.80;;;1.90;;
24137;SDS011;17947;50.672;6.076;2023-01-20T09:06:23;4.15;;;2.20;;
24137;SDS011;17947;50.672;6.076;2023-01-20T09:08:49;4.47;;;2.00;;
24137;SDS011;17947;50.672;6.076;2023-01-20T09:11:17;4.05;;;2.15;;
24137;SDS011;17947;50.672;6.076;2023-01-20T09:13:44;4.05;;;2.10;;
24137;SDS011;17947;50.672;6.076;2023-01-20T09:16:10;3.47;;;2.22;;
24137;SDS011;17947;50.672;6.076;2023-01-20T09:18:36;3.38;;;1.95;;
24137;SDS011;17947;50.672;6.076;2023-01-20T09:21:03;5.28;;;2.30;;
24137;SDS011;17947;50.672;6.076;2023-01-20T09:23:32;3.35;;;2.17;;
24137;SDS011;17947;50.672;6.076;2023-01-20T09:25:59;5.25;;;2.20;;
24137;SDS011;17947;50.672;6.076;2023-01-20T09:28:26;2.58;;;1.88;;
24137;SDS011;17947;50.672;6.076;2023-01-20T09:30:58;3.50;;;2.17;;
24137;SDS011;17947;50.672;6.076;2023-01-20T09:33:25;3.65;;;2.17;;
24137;SDS011;17947;50.672;6.076;2023-01-20T09:35:55;3.90;;;1.80;;
24137;SDS011;17947;50.672;6.076;2023-01-20T09:38:21;4.55;;;2.33;;
24137;SDS011;17947;50.672;6.076;2023-01-20T09:44:19;4.82;;;2.38;;
24137;SDS011;17947;50.672;6.076;2023-01-20T09:49:45;3.47;;;1.73;;
24137;SDS011;17947;50.672;6.076;2023-01-20T09:52:32;4.15;;;1.90;;
24137;SDS011;17947;50.672;6.076;2023-01-20T09:55:27;3.33;;;1.98;;
24137;SDS011;17947;50.672;6.076;2023-01-20T09:58:15;2.63;;;1.88;;
24137;SDS011;17947;50.672;6.076;2023-01-20T10:00:45;2.83;;;2.00;;
24137;SDS011;17947;50.672;6.076;2023-01-20T10:03:15;3.38;;;1.70;;
24137;SDS011;17947;50.672;6.076;2023-01-20T10:05:42;3.20;;;1.80;;
24137;SDS011;17947;50.672;6.076;2023-01-20T10:08:17;2.95;;;2.15;;
24137;SDS011;17947;50.672;6.076;2023-01-20T10:10:48;2.97;;;1.95;;
24137;SDS011;17947;50.672;6.076;2023-01-20T10:13:24;2.50;;;2.00;;
24137;SDS011;17947;50.672;6.076;2023-01-20T10:15:54;3.30;;;2.13;;
24137;SDS011;17947;50.672;6.076;2023-01-20T10:18:56;2.75;;;2.20;;
24137;SDS011;17947;50.672;6.076;2023-01-20T10:21:16;2.45;;;1.98;;
24137;SDS011;17947;50.672;6.076;2023-01-20T10:23:51;3.15;;;2.30;;
24137;SDS011;17947;50.672;6.076;2023-01-20T10:26:24;3.58;;;2.00;;
24137;SDS011;17947;50.672;6.076;2023-01-20T10:28:58;3.28;;;2.28;;
24137;SDS011;17947;50.672;6.076;2023-01-20T10:31:26;3.80;;;2.22;;
24137;SDS011;17947;50.672;6.076;2023-01-20T10:33:57;3.08;;;2.20;;
24137;SDS011;17947;50.672;6.076;2023-01-20T10:36:27;3.47;;;1.92;;
24137;SDS011;17947;50.672;6.076;2023-01-20T10:39:01;4.18;;;2.22;;
24137;SDS011;17947;50.672;6.076;2023-01-20T10:41:37;2.53;;;2.00;;
24137;SDS011;17947;50.672;6.076;2023-01-20T10:44:08;2.60;;;1.98;;
24137;SDS011;17947;50.672;6.076;2023-01-20T10:56:41;2.40;;;1.80;;
24137;SDS011;17947;50.672;6.076;2023-01-20T10:59:13;5.95;;;1.92;;
24137;SDS011;17947;50.672;6.076;2023-01-20T11:01:41;3.25;;;1.95;;
24137;SDS011;17947;50.672;6.076;2023-01-20T11:04:13;2.65;;;1.75;;
24137;SDS011;17947;50.672;6.076;2023-01-20T11:06:41;3.35;;;1.90;;
24137;SDS011;17947;50.672;6.076;2023-01-20T11:09:16;3.70;;;1.88;;
24137;SDS011;17947;50.672;6.076;2023-01-20T11:11:46;3.40;;;2.08;;
24137;SDS011;17947;50.672;6.076;2023-01-20T11:14:12;2.35;;;2.00;;
24137;SDS011;17947;50.672;6.076;2023-01-20T11:16:38;2.95;;;1.70;;
24137;SDS011;17947;50.672;6.076;2023-01-20T11:19:08;3.90;;;1.73;;
24137;SDS011;17947;50.672;6.076;2023-01-20T11:21:35;2.17;;;1.80;;
24137;SDS011;17947;50.672;6.076;2023-01-20T11:27:01;2.35;;;1.67;;
24137;SDS011;17947;50.672;6.076;2023-01-20T11:29:27;1.98;;;1.70;;
24137;SDS011;17947;50.672;6.076;2023-01-20T11:31:55;2.97;;;1.80;;
24137;SDS011;17947;50.672;6.076;2023-01-20T11:37:15;3.88;;;1.90;;
24137;SDS011;17947;50.672;6.076;2023-01-20T11:39:42;2.80;;;1.63;;
24137;SDS011;17947;50.672;6.076;2023-01-20T11:42:18;1.73;;;1.58;;
24137;SDS011;17947;50.672;6.076;2023-01-20T11:47:21;1.95;;;1.40;;
24137;SDS011;17947;50.672;6.076;2023-01-20T11:52:36;2.20;;;1.40;;
24137;SDS011;17947;50.672;6.076;2023-01-20T11:55:12;1.60;;;1.20;;
24137;SDS011;17947;50.672;6.076;2023-01-20T11:57:41;2.30;;;1.58;;
24137;SDS011;17947;50.672;6.076;2023-01-20T12:05:29;1.80;;;1.27;;
24137;SDS011;17947;50.672;6.076;2023-01-20T12:08:01;1.65;;;1.27;;
24137;SDS011;17947;50.672;6.076;2023-01-20T12:10:28;2.10;;;1.33;;
24137;SDS011;17947;50.672;6.076;2023-01-20T12:15:41;1.75;;;1.20;;
24137;SDS011;17947;50.672;6.076;2023-01-20T12:18:18;1.92;;;1.35;;
24137;SDS011;17947;50.672;6.076;2023-01-20T12:20:48;1.20;;;1.10;;
24137;SDS011;17947;50.672;6.076;2023-01-20T12:23:32;1.20;;;1.10;;
24137;SDS011;17947;50.672;6.076;2023-01-20T12:26:03;1.85;;;1.35;;
24137;SDS011;17947;50.672;6.076;2023-01-20T12:28:37;1.30;;;1.17;;
24137;SDS011;17947;50.672;6.076;2023-01-20T12:31:08;1.73;;;1.10;;
24137;SDS011;17947;50.672;6.076;2023-01-20T12:33:36;1.25;;;1.15;;
24137;SDS011;17947;50.672;6.076;2023-01-20T12:38:39;1.23;;;1.13;;
24137;SDS011;17947;50.672;6.076;2023-01-20T12:41:06;1.50;;;1.00;;
24137;SDS011;17947;50.672;6.076;2023-01-20T12:46:13;2.60;;;1.20;;
24137;SDS011;17947;50.672;6.076;2023-01-20T13:06:47;1.27;;;1.10;;
24137;SDS011;17947;50.672;6.076;2023-01-20T13:12:05;1.25;;;1.00;;
24137;SDS011;17947;50.672;6.076;2023-01-20T13:14:45;1.70;;;0.98;;
24137;SDS011;17947;50.672;6.076;2023-01-20T13:17:14;2.40;;;1.00;;
24137;SDS011;17947;50.672;6.076;2023-01-20T13:19:42;1.55;;;1.10;;
24137;SDS011;17947;50.672;6.076;2023-01-20T13:22:20;1.08;;;0.98;;
24137;SDS011;17947;50.672;6.076;2023-01-20T13:24:49;6.15;;;1.20;;
24137;SDS011;17947;50.672;6.076;2023-01-20T13:27:19;1.08;;;1.00;;
24137;SDS011;17947;50.672;6.076;2023-01-20T13:32:28;1.13;;;0.98;;
24137;SDS011;17947;50.672;6.076;2023-01-20T13:34:55;1.00;;;0.90;;
24137;SDS011;17947;50.672;6.076;2023-01-20T13:37:26;1.20;;;1.00;;
24137;SDS011;17947;50.672;6.076;2023-01-20T13:39:53;1.75;;;1.30;;
24137;SDS011;17947;50.672;6.076;2023-01-20T13:47:52;1.40;;;1.20;;
24137;SDS011;17947;50.672;6.076;2023-01-20T13:58:16;1.95;;;1.40;;
24137;SDS011;17947;50.672;6.076;2023-01-20T14:00:43;2.03;;;1.40;;
24137;SDS011;17947;50.672;6.076;2023-01-20T14:05:49;1.75;;;1.10;;
24137;SDS011;17947;50.672;6.076;2023-01-20T14:08:15;2.30;;;1.40;;
24137;SDS011;17947;50.672;6.076;2023-01-20T14:10:42;2.05;;;1.10;;
24137;SDS011;17947;50.672;6.076;2023-01-20T14:13:10;1.13;;;1.02;;
24137;SDS011;17947;50.672;6.076;2023-01-20T14:15:38;1.55;;;1.17;;
24137;SDS011;17947;50.672;6.076;2023-01-20T14:18:10;1.23;;;1.00;;
24137;SDS011;17947;50.672;6.076;2023-01-20T14:20:37;1.50;;;1.27;;
24137;SDS011;17947;50.672;6.076;2023-01-20T14:26:00;2.20;;;1.20;;
24137;SDS011;17947;50.672;6.076;2023-01-20T14:28:27;1.45;;;1.30;;
24137;SDS011;17947;50.672;6.076;2023-01-20T14:33:43;1.30;;;1.10;;
24137;SDS011;17947;50.672;6.076;2023-01-20T14:36:12;1.50;;;1.30;;
24137;SDS011;17947;50.672;6.076;2023-01-20T14:38:38;1.40;;;1.20;;
24137;SDS011;17947;50.672;6.076;2023-01-20T14:41:21;1.30;;;1.20;;
24137;SDS011;17947;50.672;6.076;2023-01-20T14:43:47;1.58;;;1.42;;
24137;SDS011;17947;50.672;6.076;2023-01-20T14:46:13;1.63;;;1.17;;
24137;SDS011;17947;50.672;6.076;2023-01-20T14:48:41;1.20;;;1.10;;
24137;SDS011;17947;50.672;6.076;2023-01-20T14:51:08;1.20;;;1.10;;
24137;SDS011;17947;50.672;6.076;2023-01-20T14:53:34;1.17;;;1.00;;
24137;SDS011;17947;50.672;6.076;2023-01-20T14:56:02;1.48;;;1.33;;
24137;SDS011;17947;50.672;6.076;2023-01-20T14:58:31;1.30;;;1.20;;
24137;SDS011;17947;50.672;6.076;2023-01-20T15:01:01;1.30;;;1.20;;
24137;SDS011;17947;50.672;6.076;2023-01-20T15:03:28;2.17;;;1.20;;
24137;SDS011;17947;50.672;6.076;2023-01-20T15:16:28;2.13;;;1.45;;
24137;SDS011;17947;50.672;6.076;2023-01-20T15:24:17;1.98;;;1.50;;
24137;SDS011;17947;50.672;6.076;2023-01-20T15:26:45;2.13;;;1.70;;
24137;SDS011;17947;50.672;6.076;2023-01-20T15:29:18;2.08;;;1.58;;
24137;SDS011;17947;50.672;6.076;2023-01-20T15:31:46;1.52;;;1.40;;
24137;SDS011;17947;50.672;6.076;2023-01-20T15:34:12;1.80;;;1.52;;
24137;SDS011;17947;50.672;6.076;2023-01-20T15:36:49;2.03;;;1.63;;
24137;SDS011;17947;50.672;6.076;2023-01-20T15:39:17;2.55;;;1.88;;
24137;SDS011;17947;50.672;6.076;2023-01-20T15:41:43;2.47;;;1.65;;
24137;SDS011;17947;50.672;6.076;2023-01-20T15:44:11;2.20;;;1.70;;
24137;SDS011;17947;50.672;6.076;2023-01-20T15:46:43;2.13;;;1.70;;
24137;SDS011;17947;50.672;6.076;2023-01-20T15:49:10;2.08;;;1.70;;
24137;SDS011;17947;50.672;6.076;2023-01-20T15:51:36;2.15;;;1.88;;
24137;SDS011;17947;50.672;6.076;2023-01-20T15:54:02;1.75;;;1.52;;
24137;SDS011;17947;50.672;6.076;2023-01-20T15:56:31;2.30;;;1.83;;
24137;SDS011;17947;50.672;6.076;2023-01-20T15:58:59;2.88;;;2.03;;
24137;SDS011;17947;50.672;6.076;2023-01-20T16:01:25;2.30;;;1.80;;
24137;SDS011;17947;50.672;6.076;2023-01-20T16:03:53;1.95;;;1.73;;
24137;SDS011;17947;50.672;6.076;2023-01-20T16:06:21;2.75;;;1.95;;
24137;SDS011;17947;50.672;6.076;2023-01-20T16:08:48;2.33;;;2.00;;
24137;SDS011;17947;50.672;6.076;2023-01-20T16:11:15;2.28;;;1.92;;
24137;SDS011;17947;50.672;6.076;2023-01-20T16:13:41;3.03;;;1.80;;
24137;SDS011;17947;50.672;6.076;2023-01-20T16:16:11;2.60;;;1.80;;
24137;SDS011;17947;50.672;6.076;2023-01-20T16:18:40;2.25;;;1.70;;
24137;SDS011;17947;50.672;6.076;2023-01-20T16:21:08;1.88;;;1.75;;
24137;SDS011;17947;50.672;6.076;2023-01-20T16:23:34;2.03;;;1.83;;
24137;SDS011;17947;50.672;6.076;2023-01-20T16:26:01;2.58;;;2.05;;
24137;SDS011;17947;50.672;6.076;2023-01-20T16:28:27;3.63;;;2.13;;
24137;SDS011;17947;50.672;6.076;2023-01-20T16:30:53;2.30;;;1.95;;
24137;SDS011;17947;50.672;6.076;2023-01-20T16:33:22;3.08;;;2.13;;
24137;SDS011;17947;50.672;6.076;2023-01-20T16:35:49;2.72;;;2.08;;
24137;SDS011;17947;50.672;6.076;2023-01-20T16:38:17;2.95;;;2.28;;
24137;SDS011;17947;50.672;6.076;2023-01-20T16:40:44;2.25;;;1.90;;
24137;SDS011;17947;50.672;6.076;2023-01-20T16:43:11;2.55;;;2.08;;
24137;SDS011;17947;50.672;6.076;2023-01-20T16:45:37;3.03;;;2.08;;
24137;SDS011;17947;50.672;6.076;2023-01-20T16:48:03;2.42;;;2.05;;
24137;SDS011;17947;50.672;6.076;2023-01-20T16:50:31;2.78;;;2.33;;
24137;SDS011;17947;50.672;6.076;2023-01-20T16:52:57;2.95;;;2.50;;
24137;SDS011;17947;50.672;6.076;2023-01-20T16:55:23;4.05;;;2.85;;
24137;SDS011;17947;50.672;6.076;2023-01-20T16:57:49;3.20;;;2.83;;
24137;SDS011;17947;50.672;6.076;2023-01-20T17:00:16;2.83;;;2.53;;
24137;SDS011;17947;50.672;6.076;2023-01-20T17:02:43;3.92;;;2.78;;